Time;durP1;ratioP1;P1;durP2;ratioP2;P2;SDS_P1;SDS_P2;PMS_P1;PMS_P2;Temp;Humidity;BMP_temperature;BMP_pressure;BME280_temperature;BME280_humidity;BME280_pressure;Samples;Min_cycle;Max_cycle;Signal;HPM_P1;HPM_P2
2022/10/02 00:02:06;;;;;;;6.20;1.98;;;;;;;;;;4981029;28;20379;-68
2022/10/02 00:04:39;;;;;;;5.22;2.50;;;;;;;;;;4994043;28;20414;-68
2022/10/02 00:07:11;;;;;;;5.35;1.83;;;;;;;;;;4993973;28;20058;-69
2022/10/02 00:09:57;;;;;;;4.57;1.52;;;;;;;;;;4994030;28;20046;-69
2022/10/02 00:12:30;;;;;;;4.43;2.22;;;;;;;;;;4993420;28;20558;-69
2022/10/02 00:15:12;;;;;;;4.45;1.65;;;;;;;;;;4973924;28;20046;-69
2022/10/02 00:17:46;;;;;;;4.35;1.48;;;;;;;;;;4974145;28;20502;-69
2022/10/02 00:20:22;;;;;;;4.93;1.60;;;;;;;;;;4973972;28;20066;-68
2022/10/02 00:23:07;;;;;;;5.22;1.65;;;;;;;;;;4974205;28;20046;-68
2022/10/02 00:25:50;;;;;;;5.43;1.35;;;;;;;;;;4972957;28;20420;-68
2022/10/02 00:28:29;;;;;;;6.00;1.50;;;;;;;;;;4973900;28;20062;-68
2022/10/02 00:31:15;;;;;;;8.45;2.10;;;;;;;;;;4988277;28;20514;-68
2022/10/02 00:34:04;;;;;;;5.90;1.92;;;;;;;;;;5012783;28;20506;-67
2022/10/02 00:36:57;;;;;;;3.28;1.45;;;;;;;;;;5013069;28;20061;-68
2022/10/02 00:39:36;;;;;;;4.70;1.80;;;;;;;;;;4993198;28;20054;-68
2022/10/02 00:42:12;;;;;;;3.88;1.60;;;;;;;;;;4992782;28;20050;-68
2022/10/02 00:45:08;;;;;;;9.02;1.75;;;;;;;;;;4993150;28;20054;-68
2022/10/02 00:47:48;;;;;;;4.38;2.00;;;;;;;;;;4993316;28;20169;-68
2022/10/02 00:50:45;;;;;;;4.07;1.90;;;;;;;;;;4992776;28;20054;-69
2022/10/02 00:53:35;;;;;;;5.43;2.10;;;;;;;;;;4978059;28;20066;-69
2022/10/02 00:56:41;;;;;;;5.88;2.05;;;;;;;;;;4941502;28;20070;-69
2022/10/02 00:59:34;;;;;;;5.40;1.92;;;;;;;;;;4973076;28;20051;-68
2022/10/02 01:02:25;;;;;;;6.40;1.95;;;;;;;;;;4954089;29;20066;-68
2022/10/02 01:04:59;;;;;;;5.40;1.90;;;;;;;;;;4938110;29;20075;-68
2022/10/02 01:07:29;;;;;;;5.88;2.10;;;;;;;;;;4953915;29;20070;-68
2022/10/02 01:10:00;;;;;;;4.35;1.83;;;;;;;;;;4953652;29;20055;-68
2022/10/02 01:12:30;;;;;;;3.47;1.88;;;;;;;;;;4953805;29;20492;-68
2022/10/02 01:15:00;;;;;;;6.47;2.40;;;;;;;;;;4953784;29;20047;-68
2022/10/02 01:17:33;;;;;;;5.63;2.33;;;;;;;;;;4953636;29;20056;-68
2022/10/02 01:20:06;;;;;;;5.65;2.38;;;;;;;;;;4930875;29;20062;-67
2022/10/02 01:22:48;;;;;;;6.38;2.40;;;;;;;;;;4921959;29;20051;-68
2022/10/02 01:25:19;;;;;;;5.50;2.33;;;;;;;;;;4967632;28;20062;-68
2022/10/02 01:27:52;;;;;;;6.90;2.80;;;;;;;;;;4972965;28;20054;-68
2022/10/02 01:30:23;;;;;;;5.10;2.13;;;;;;;;;;4922395;29;20055;-68
2022/10/02 01:32:56;;;;;;;6.13;2.55;;;;;;;;;;4953191;29;20499;-68
2022/10/02 01:35:32;;;;;;;6.30;2.00;;;;;;;;;;4953290;28;20059;-68
2022/10/02 01:38:09;;;;;;;6.38;2.20;;;;;;;;;;4953978;28;20500;-68
2022/10/02 01:40:40;;;;;;;7.03;2.50;;;;;;;;;;5018462;28;20049;-68
2022/10/02 01:43:28;;;;;;;5.28;2.45;;;;;;;;;;5018532;28;20467;-68
2022/10/02 01:46:42;;;;;;;5.38;2.58;;;;;;;;;;5031071;28;20049;-67
2022/10/02 01:49:15;;;;;;;8.70;2.15;;;;;;;;;;5014982;28;20065;-68
2022/10/02 01:51:57;;;;;;;7.43;2.40;;;;;;;;;;5031183;28;20524;-68
2022/10/02 01:55:10;;;;;;;6.03;2.13;;;;;;;;;;5031058;28;20057;-69
2022/10/02 01:58:06;;;;;;;8.60;2.58;;;;;;;;;;4953043;29;20059;-68
2022/10/02 02:00:51;;;;;;;7.70;2.67;;;;;;;;;;4898829;29;20052;-69
2022/10/02 02:03:28;;;;;;;6.45;2.75;;;;;;;;;;4914755;29;20382;-69
2022/10/02 02:06:05;;;;;;;5.97;2.63;;;;;;;;;;4898827;29;20056;-68
2022/10/02 02:08:45;;;;;;;6.30;2.45;;;;;;;;;;4928640;29;20091;-69
2022/10/02 02:11:19;;;;;;;6.53;2.35;;;;;;;;;;4933494;29;20060;-69
2022/10/02 02:14:01;;;;;;;6.68;2.35;;;;;;;;;;4933635;29;20055;-68
2022/10/02 02:16:45;;;;;;;7.68;2.55;;;;;;;;;;4933371;29;20063;-69
2022/10/02 02:19:20;;;;;;;5.30;2.20;;;;;;;;;;4933501;29;20059;-69
2022/10/02 02:22:00;;;;;;;7.63;2.58;;;;;;;;;;4952408;29;20062;-69
2022/10/02 02:24:51;;;;;;;4.45;2.10;;;;;;;;;;4969302;28;20062;-68
2022/10/02 02:27:28;;;;;;;9.65;2.72;;;;;;;;;;4972101;28;20062;-69
2022/10/02 02:30:05;;;;;;;4.93;2.35;;;;;;;;;;4923437;28;20207;-69
2022/10/02 02:32:40;;;;;;;5.55;2.40;;;;;;;;;;4924286;28;20062;-69
2022/10/02 02:35:19;;;;;;;7.70;2.55;;;;;;;;;;4923840;28;20058;-69
2022/10/02 02:37:55;;;;;;;6.50;2.50;;;;;;;;;;4992528;28;20058;-68
2022/10/02 02:40:29;;;;;;;6.65;2.28;;;;;;;;;;5010829;28;20049;-69
2022/10/02 02:43:03;;;;;;;6.88;2.63;;;;;;;;;;4962543;28;20506;-70
2022/10/02 02:45:58;;;;;;;6.25;2.20;;;;;;;;;;4978168;28;20057;-69
2022/10/02 02:48:35;;;;;;;6.55;2.67;;;;;;;;;;5026261;28;20065;-68
2022/10/02 02:51:33;;;;;;;6.10;2.03;;;;;;;;;;5010832;28;20071;-69
2022/10/02 02:54:27;;;;;;;;;;;;;;;;;;5030541;28;20060;-68
2022/10/02 02:57:00;;;;;;;7.97;2.03;;;;;;;;;;5030425;28;19928;-69
2022/10/02 02:59:31;;;;;;;8.07;2.30;;;;;;;;;;4990677;28;20050;-69
2022/10/02 03:02:02;;;;;;;5.10;2.25;;;;;;;;;;4942711;28;20062;-69
2022/10/02 03:04:32;;;;;;;6.47;2.03;;;;;;;;;;4990731;28;20062;-69
2022/10/02 03:07:05;;;;;;;5.00;2.47;;;;;;;;;;4942640;28;20494;-69
2022/10/02 03:09:36;;;;;;;7.30;2.97;;;;;;;;;;4952049;28;20063;-69
2022/10/02 03:12:06;;;;;;;5.97;3.00;;;;;;;;;;4951935;28;20558;-70
2022/10/02 03:14:51;;;;;;;8.27;2.60;;;;;;;;;;4952167;28;20500;-69
2022/10/02 03:17:47;;;;;;;6.43;2.20;;;;;;;;;;4951914;28;20392;-69
2022/10/02 03:20:40;;;;;;;6.22;2.60;;;;;;;;;;4951811;28;20055;-69
2022/10/02 03:23:32;;;;;;;5.32;2.55;;;;;;;;;;4920077;29;20059;-68
2022/10/02 03:26:10;;;;;;;;;;;;;;;;;;4952488;28;20102;-69
2022/10/02 03:28:58;;;;;;;7.15;2.50;;;;;;;;;;4951844;28;19922;-70
2022/10/02 03:31:32;;;;;;;5.90;2.45;;;;;;;;;;4957630;28;20055;-69
2022/10/02 03:34:04;;;;;;;4.38;2.00;;;;;;;;;;4971040;28;20059;-69
2022/10/02 03:36:35;;;;;;;6.60;2.40;;;;;;;;;;4976919;28;20054;-69
2022/10/02 03:39:07;;;;;;;6.68;2.13;;;;;;;;;;4990550;28;20062;-69
2022/10/02 03:41:54;;;;;;;6.70;2.40;;;;;;;;;;4990457;28;20060;-69
2022/10/02 03:44:25;;;;;;;6.63;2.60;;;;;;;;;;4958337;28;20534;-69
2022/10/02 03:46:54;;;;;;;13.10;2.75;;;;;;;;;;4965731;28;20705;-69
2022/10/02 03:49:24;;;;;;;6.28;2.40;;;;;;;;;;4993586;28;20524;-69
2022/10/02 03:51:54;;;;;;;6.68;2.85;;;;;;;;;;4993451;28;20556;-68
2022/10/02 03:54:34;;;;;;;5.00;2.38;;;;;;;;;;5009889;28;20050;-70
2022/10/02 03:57:09;;;;;;;5.90;2.67;;;;;;;;;;4993226;28;20760;-69
2022/10/02 04:00:00;;;;;;;8.20;2.67;;;;;;;;;;5027934;28;20053;-69
2022/10/02 04:02:46;;;;;;;10.27;2.90;;;;;;;;;;5013986;28;20061;-69
2022/10/02 04:05:42;;;;;;;6.35;2.60;;;;;;;;;;5013711;28;20085;-69
2022/10/02 04:08:22;;;;;;;5.30;2.20;;;;;;;;;;5021700;28;20054;-69
2022/10/02 04:11:15;;;;;;;7.97;2.30;;;;;;;;;;5075448;28;20522;-69
2022/10/02 04:14:05;;;;;;;5.55;2.10;;;;;;;;;;5073845;28;20045;-69
2022/10/02 04:16:46;;;;;;;5.07;2.33;;;;;;;;;;5073307;28;20504;-69
2022/10/02 04:19:48;;;;;;;7.93;2.85;;;;;;;;;;5040013;28;20056;-69
2022/10/02 04:22:41;;;;;;;4.22;2.25;;;;;;;;;;5073886;28;20056;-69
2022/10/02 04:25:21;;;;;;;6.43;2.58;;;;;;;;;;5033036;28;20061;-69
2022/10/02 04:28:03;;;;;;;8.55;2.80;;;;;;;;;;4973651;28;20050;-69
2022/10/02 04:30:33;;;;;;;6.22;2.20;;;;;;;;;;4958419;28;20050;-68
2022/10/02 04:33:23;;;;;;;5.75;2.30;;;;;;;;;;4941900;28;20092;-69
2022/10/02 04:36:11;;;;;;;6.45;2.40;;;;;;;;;;4973993;28;20059;-69
2022/10/02 04:38:56;;;;;;;7.18;2.72;;;;;;;;;;4974110;28;20058;-69
2022/10/02 04:42:05;;;;;;;10.00;2.63;;;;;;;;;;4973948;28;20607;-69
2022/10/02 04:44:54;;;;;;;8.05;2.40;;;;;;;;;;4954227;29;20055;-69
2022/10/02 04:47:42;;;;;;;8.10;2.42;;;;;;;;;;4954295;28;20507;-68
2022/10/02 04:50:42;;;;;;;6.40;2.45;;;;;;;;;;4954591;28;20646;-69
2022/10/02 04:53:24;;;;;;;6.93;2.75;;;;;;;;;;4954250;28;20082;-69
2022/10/02 04:56:05;;;;;;;6.35;2.60;;;;;;;;;;4954226;28;20059;-68
2022/10/02 04:58:54;;;;;;;7.32;2.20;;;;;;;;;;4906669;28;20412;-69
2022/10/02 05:01:38;;;;;;;6.20;2.10;;;;;;;;;;4956385;28;20039;-69
2022/10/02 05:04:35;;;;;;;7.72;2.67;;;;;;;;;;4941377;28;20055;-69
2022/10/02 05:07:12;;;;;;;4.97;2.33;;;;;;;;;;4993072;28;20054;-69
2022/10/02 05:09:48;;;;;;;4.95;2.25;;;;;;;;;;4960383;28;20061;-68
2022/10/02 05:12:57;;;;;;;6.72;2.03;;;;;;;;;;4960539;28;20058;-69
2022/10/02 05:15:44;;;;;;;5.60;2.30;;;;;;;;;;4992429;28;20062;-69
2022/10/02 05:18:24;;;;;;;10.25;2.35;;;;;;;;;;4992513;28;20069;-69
2022/10/02 05:21:03;;;;;;;7.35;3.03;;;;;;;;;;4944527;28;20506;-69
2022/10/02 05:23:57;;;;;;;4.90;2.35;;;;;;;;;;4999242;28;20050;-69
2022/10/02 05:26:34;;;;;;;5.60;2.45;;;;;;;;;;5074154;28;20067;-69
2022/10/02 05:29:13;;;;;;;10.25;2.38;;;;;;;;;;5038665;28;20523;-69
2022/10/02 05:32:16;;;;;;;5.47;2.58;;;;;;;;;;5073939;28;20377;-69
2022/10/02 05:35:20;;;;;;;5.80;2.60;;;;;;;;;;5038869;28;20068;-70
2022/10/02 05:37:51;;;;;;;8.60;2.63;;;;;;;;;;5074662;28;20504;-69
2022/10/02 05:40:31;;;;;;;7.50;3.13;;;;;;;;;;5091470;28;20044;-69
2022/10/02 05:43:08;;;;;;;5.38;2.15;;;;;;;;;;5058149;28;20507;-69
2022/10/02 05:45:58;;;;;;;5.20;2.30;;;;;;;;;;5091622;28;20055;-69
2022/10/02 05:48:36;;;;;;;5.28;2.15;;;;;;;;;;5037523;28;20048;-69
2022/10/02 05:51:13;;;;;;;5.32;2.20;;;;;;;;;;5071159;28;20080;-69
2022/10/02 05:53:51;;;;;;;9.60;2.38;;;;;;;;;;5070952;28;20099;-69
2022/10/02 05:56:36;;;;;;;6.68;2.45;;;;;;;;;;5070998;28;20052;-69
2022/10/02 05:59:51;;;;;;;5.57;1.92;;;;;;;;;;5070739;28;20404;-69
2022/10/02 06:02:24;;;;;;;4.60;2.20;;;;;;;;;;5050741;28;20049;-69
2022/10/02 06:05:12;;;;;;;5.38;2.25;;;;;;;;;;5050678;28;20072;-70
2022/10/02 06:07:46;;;;;;;4.85;2.20;;;;;;;;;;5030738;28;20061;-69
2022/10/02 06:10:21;;;;;;;5.53;2.00;;;;;;;;;;5010859;28;20615;-69
2022/10/02 06:13:30;;;;;;;6.30;2.22;;;;;;;;;;4978612;28;20057;-69
2022/10/02 06:16:19;;;;;;;7.80;2.13;;;;;;;;;;5011132;28;20093;-69
2022/10/02 06:18:55;;;;;;;4.85;2.20;;;;;;;;;;5011113;28;20406;-69
2022/10/02 06:21:48;;;;;;;6.35;1.90;;;;;;;;;;5010721;28;20054;-69
2022/10/02 06:24:30;;;;;;;6.65;2.35;;;;;;;;;;4978270;28;20057;-69
2022/10/02 06:27:39;;;;;;;7.85;2.05;;;;;;;;;;4996049;28;20053;-69
2022/10/02 06:30:14;;;;;;;4.25;1.83;;;;;;;;;;4991193;28;20054;-69
2022/10/02 06:33:04;;;;;;;3.67;1.73;;;;;;;;;;4991298;28;20403;-68
2022/10/02 06:35:37;;;;;;;5.65;2.00;;;;;;;;;;4991048;28;20050;-69
2022/10/02 06:38:18;;;;;;;4.13;2.20;;;;;;;;;;4971643;28;20061;-68
2022/10/02 06:40:53;;;;;;;4.47;2.33;;;;;;;;;;4892091;29;20082;-68
2022/10/02 06:43:57;;;;;;;4.43;2.08;;;;;;;;;;4949500;29;20059;-69
2022/10/02 06:46:45;;;;;;;5.45;2.35;;;;;;;;;;4970917;28;20059;-69
2022/10/02 06:49:56;;;;;;;5.57;2.50;;;;;;;;;;4990944;28;20070;-69
2022/10/02 06:52:52;;;;;;;6.65;2.28;;;;;;;;;;4990926;28;20055;-69
2022/10/02 06:55:22;;;;;;;5.80;1.92;;;;;;;;;;4971638;28;20061;-69
2022/10/02 06:58:13;;;;;;;8.00;2.10;;;;;;;;;;4935907;29;20055;-69
2022/10/02 07:01:24;;;;;;;5.32;2.33;;;;;;;;;;4951864;29;20055;-68
2022/10/02 07:04:00;;;;;;;7.15;2.38;;;;;;;;;;4971331;28;20407;-68
2022/10/02 07:06:52;;;;;;;6.65;2.40;;;;;;;;;;4971473;28;20062;-69
2022/10/02 07:09:40;;;;;;;5.72;2.00;;;;;;;;;;4971306;28;20050;-68
2022/10/02 07:12:20;;;;;;;5.93;2.00;;;;;;;;;;4955649;28;20043;-68
2022/10/02 07:15:11;;;;;;;5.07;2.13;;;;;;;;;;4925869;28;20513;-68
2022/10/02 07:18:18;;;;;;;6.38;2.00;;;;;;;;;;4990917;28;20379;-68
2022/10/02 07:21:03;;;;;;;4.80;2.10;;;;;;;;;;4990317;28;20058;-68
2022/10/02 07:23:51;;;;;;;4.35;2.08;;;;;;;;;;4990619;28;20534;-68
2022/10/02 07:26:32;;;;;;;6.65;2.50;;;;;;;;;;4958124;28;20050;-68
2022/10/02 07:29:03;;;;;;;6.85;2.40;;;;;;;;;;4990293;28;20069;-68
2022/10/02 07:31:44;;;;;;;6.05;2.50;;;;;;;;;;4988670;28;20054;-68
2022/10/02 07:34:43;;;;;;;4.65;2.20;;;;;;;;;;4973047;28;20059;-68
2022/10/02 07:37:21;;;;;;;7.20;2.30;;;;;;;;;;4936279;29;20063;-68
2022/10/02 07:40:18;;;;;;;5.00;2.33;;;;;;;;;;4941529;28;20074;-68
2022/10/02 07:42:55;;;;;;;6.28;2.03;;;;;;;;;;4974900;28;20169;-68
2022/10/02 07:45:37;;;;;;;7.15;2.30;;;;;;;;;;4974950;28;20062;-69
2022/10/02 07:48:22;;;;;;;5.13;2.35;;;;;;;;;;4974727;28;20051;-68
2022/10/02 07:50:58;;;;;;;9.80;2.38;;;;;;;;;;4974822;28;20054;-68
2022/10/02 07:53:50;;;;;;;6.68;2.53;;;;;;;;;;4970813;28;20051;-68
2022/10/02 07:56:22;;;;;;;5.38;2.33;;;;;;;;;;4939133;29;20063;-68
2022/10/02 07:59:03;;;;;;;7.43;2.53;;;;;;;;;;4942262;29;20063;-68
2022/10/02 08:01:37;;;;;;;9.48;2.67;;;;;;;;;;4935860;29;20059;-68
2022/10/02 08:04:18;;;;;;;5.63;2.20;;;;;;;;;;4935991;29;20048;-68
2022/10/02 08:06:56;;;;;;;6.20;2.40;;;;;;;;;;4965509;28;20384;-71
2022/10/02 08:09:40;;;;;;;10.75;2.38;;;;;;;;;;4958342;28;20054;-71
2022/10/02 08:12:54;;;;;;;4.85;2.47;;;;;;;;;;4974472;28;20051;-71
2022/10/02 08:15:27;;;;;;;6.07;2.53;;;;;;;;;;5013512;28;20065;-67
2022/10/02 08:18:09;;;;;;;6.07;2.42;;;;;;;;;;4997116;28;20058;-68
2022/10/02 08:21:01;;;;;;;5.43;2.47;;;;;;;;;;5013280;28;20053;-68
2022/10/02 08:23:47;;;;;;;5.95;2.65;;;;;;;;;;5013073;28;20054;-68
2022/10/02 08:26:33;;;;;;;5.97;2.35;;;;;;;;;;4980740;28;20062;-67
2022/10/02 08:29:27;;;;;;;5.35;2.95;;;;;;;;;;4949029;28;20065;-68
2022/10/02 08:31:57;;;;;;;7.68;2.88;;;;;;;;;;4954519;29;20059;-68
2022/10/02 08:34:29;;;;;;;6.88;2.30;;;;;;;;;;4954970;29;20507;-68
2022/10/02 08:37:12;;;;;;;5.78;2.65;;;;;;;;;;4916156;29;20044;-67
2022/10/02 08:40:18;;;;;;;6.25;2.50;;;;;;;;;;4916723;29;20500;-68
2022/10/02 08:43:18;;;;;;;7.93;2.60;;;;;;;;;;4898995;29;20534;-68
2022/10/02 08:46:25;;;;;;;5.45;2.60;;;;;;;;;;4953731;28;20047;-67
2022/10/02 08:49:13;;;;;;;7.88;2.50;;;;;;;;;;4954274;28;20066;-68
2022/10/02 08:52:01;;;;;;;3.83;1.95;;;;;;;;;;4938156;29;20066;-67
2022/10/02 08:55:01;;;;;;;4.95;2.15;;;;;;;;;;4937947;28;20058;-67
2022/10/02 08:57:52;;;;;;;4.93;2.42;;;;;;;;;;4954189;29;20070;-67
2022/10/02 09:00:54;;;;;;;5.70;2.65;;;;;;;;;;4953937;29;20523;-67
2022/10/02 09:04:01;;;;;;;7.03;2.40;;;;;;;;;;4934791;29;20047;-67
2022/10/02 09:07:05;;;;;;;5.00;2.30;;;;;;;;;;4934932;29;20047;-68
2022/10/02 09:09:57;;;;;;;6.03;2.75;;;;;;;;;;4961110;28;20510;-68
2022/10/02 09:12:57;;;;;;;5.18;2.17;;;;;;;;;;4973132;28;20055;-67
2022/10/02 09:15:35;;;;;;;5.32;2.95;;;;;;;;;;4989419;28;20416;-67
2022/10/02 09:18:09;;;;;;;10.10;2.65;;;;;;;;;;4992578;28;20050;-67
2022/10/02 09:21:07;;;;;;;5.15;2.53;;;;;;;;;;4992392;28;20414;-67
2022/10/02 09:24:10;;;;;;;5.47;2.65;;;;;;;;;;4972814;28;20051;-68
2022/10/02 09:26:58;;;;;;;6.18;2.60;;;;;;;;;;4962682;28;20064;-68
2022/10/02 09:29:48;;;;;;;7.82;2.38;;;;;;;;;;4937602;29;20067;-67
2022/10/02 09:32:52;;;;;;;6.85;3.00;;;;;;;;;;4953565;29;20164;-67
2022/10/02 09:35:40;;;;;;;6.18;2.25;;;;;;;;;;4953622;29;20059;-67
2022/10/02 09:38:46;;;;;;;8.80;2.50;;;;;;;;;;4953479;29;20050;-67
2022/10/02 09:41:38;;;;;;;4.78;2.08;;;;;;;;;;4988186;28;20065;-67
2022/10/02 09:44:30;;;;;;;7.28;2.67;;;;;;;;;;4972389;28;20094;-67
2022/10/02 09:47:23;;;;;;;7.55;2.53;;;;;;;;;;4933769;29;20044;-67
2022/10/02 09:50:27;;;;;;;5.18;2.38;;;;;;;;;;4914667;29;20056;-67
2022/10/02 09:53:06;;;;;;;7.82;2.50;;;;;;;;;;4892822;29;20053;-67
2022/10/02 09:56:17;;;;;;;5.43;2.30;;;;;;;;;;4877394;29;20060;-67
2022/10/02 09:59:24;;;;;;;6.07;2.83;;;;;;;;;;4877161;29;20441;-67
2022/10/02 10:02:12;;;;;;;8.90;3.30;;;;;;;;;;4858542;29;20057;-67
2022/10/02 10:05:07;;;;;;;7.72;3.85;;;;;;;;;;4858736;29;20061;-67
2022/10/02 10:08:09;;;;;;;6.57;3.03;;;;;;;;;;4895441;29;20069;-67
2022/10/02 10:11:06;;;;;;;10.18;3.50;;;;;;;;;;4896119;29;20056;-67
2022/10/02 10:13:54;;;;;;;12.07;4.40;;;;;;;;;;4895715;29;20091;-67
2022/10/02 10:16:45;;;;;;;13.32;4.53;;;;;;;;;;4895646;29;20060;-67
2022/10/02 10:19:37;;;;;;;13.15;5.10;;;;;;;;;;4895610;29;20065;-67
2022/10/02 10:22:43;;;;;;;11.88;4.65;;;;;;;;;;4895642;29;20072;-67
2022/10/02 10:25:50;;;;;;;14.27;4.65;;;;;;;;;;4897922;29;20056;-67
2022/10/02 10:28:23;;;;;;;8.90;4.13;;;;;;;;;;4964097;28;20062;-69
2022/10/02 10:31:11;;;;;;;13.85;5.32;;;;;;;;;;4971635;28;20051;-70
2022/10/02 10:33:50;;;;;;;11.45;4.43;;;;;;;;;;4971335;28;20510;-70
2022/10/02 10:40:00;;;;;;;13.95;3.95;;;;;;;;;;5030369;28;20049;-67
2022/10/02 10:43:01;;;;;;;13.45;3.83;;;;;;;;;;5030965;28;20069;-67
2022/10/02 10:45:41;;;;;;;10.63;3.95;;;;;;;;;;4993509;28;20404;-67
2022/10/02 10:48:33;;;;;;;8.07;3.97;;;;;;;;;;5049954;28;20049;-67
2022/10/02 10:51:29;;;;;;;9.75;3.40;;;;;;;;;;5017252;28;20068;-68
2022/10/02 10:54:39;;;;;;;8.02;3.10;;;;;;;;;;5050174;28;20053;-68
2022/10/02 10:57:18;;;;;;;8.95;3.50;;;;;;;;;;5017237;28;20159;-67
2022/10/02 11:00:03;;;;;;;8.07;3.70;;;;;;;;;;5029586;28;20045;-67
2022/10/02 11:02:34;;;;;;;9.88;3.10;;;;;;;;;;5029943;28;20057;-67
2022/10/02 11:06:01;;;;;;;6.78;3.40;;;;;;;;;;5032564;28;20057;-68
2022/10/02 11:08:49;;;;;;;10.70;2.67;;;;;;;;;;4926079;29;20062;-68
2022/10/02 11:11:37;;;;;;;5.45;2.72;;;;;;;;;;4932705;29;20052;-68
2022/10/02 11:14:20;;;;;;;5.57;2.80;;;;;;;;;;4932693;29;20058;-68
2022/10/02 11:17:15;;;;;;;4.45;2.30;;;;;;;;;;4932570;29;20059;-67
2022/10/02 11:20:14;;;;;;;5.75;2.25;;;;;;;;;;4932643;29;20171;-67
2022/10/02 11:22:56;;;;;;;4.40;2.33;;;;;;;;;;4932644;29;20404;-67
2022/10/02 11:26:04;;;;;;;4.75;2.05;;;;;;;;;;4920108;29;20066;-68
2022/10/02 11:28:43;;;;;;;4.00;1.83;;;;;;;;;;4951410;29;20055;-68
2022/10/02 11:31:48;;;;;;;4.40;2.22;;;;;;;;;;4951727;29;20062;-67
2022/10/02 11:34:49;;;;;;;3.47;1.80;;;;;;;;;;4910325;29;20056;-68
2022/10/02 11:37:44;;;;;;;3.80;1.88;;;;;;;;;;4903222;29;20063;-68
2022/10/02 11:40:53;;;;;;;5.53;1.98;;;;;;;;;;4881958;29;20500;-68
2022/10/02 11:43:45;;;;;;;4.55;2.00;;;;;;;;;;4929230;29;20055;-68
2022/10/02 11:46:52;;;;;;;4.60;2.03;;;;;;;;;;4917059;29;20535;-69
2022/10/02 11:50:00;;;;;;;3.85;1.98;;;;;;;;;;4916528;29;20056;-68
2022/10/02 11:52:46;;;;;;;8.02;2.22;;;;;;;;;;4916841;29;20071;-68
2022/10/02 11:55:27;;;;;;;5.05;2.20;;;;;;;;;;4900845;29;20068;-69
2022/10/02 11:58:13;;;;;;;7.07;2.30;;;;;;;;;;4885224;29;20525;-68
2022/10/02 12:01:04;;;;;;;4.57;2.40;;;;;;;;;;4884927;29;20055;-68
2022/10/02 12:03:49;;;;;;;4.20;2.10;;;;;;;;;;4932296;29;20064;-68
2022/10/02 12:06:54;;;;;;;5.68;2.13;;;;;;;;;;4932428;29;20412;-68
2022/10/02 12:09:30;;;;;;;4.40;2.28;;;;;;;;;;4932504;29;20047;-69
2022/10/02 12:12:21;;;;;;;3.33;1.73;;;;;;;;;;4970675;28;20071;-69
2022/10/02 12:15:41;;;;;;;4.03;1.77;;;;;;;;;;4970593;28;20569;-69
2022/10/02 12:18:30;;;;;;;4.72;2.17;;;;;;;;;;4922862;28;20055;-69
2022/10/02 12:28:20;;;;;;;4.22;2.03;;;;;;;;;;4916597;29;20052;-70
2022/10/02 12:31:14;;;;;;;5.13;2.60;;;;;;;;;;4879050;29;20069;-69
2022/10/02 12:33:53;;;;;;;5.85;1.80;;;;;;;;;;4878931;29;20152;-69
2022/10/02 12:36:33;;;;;;;4.88;2.00;;;;;;;;;;4878923;29;20395;-70
2022/10/02 12:39:25;;;;;;;8.27;2.42;;;;;;;;;;4878662;29;20417;-69
2022/10/02 12:42:33;;;;;;;4.05;2.17;;;;;;;;;;4878843;29;20057;-70
2022/10/02 12:45:37;;;;;;;4.50;1.90;;;;;;;;;;4823510;29;20062;-69
2022/10/02 12:48:30;;;;;;;3.67;1.98;;;;;;;;;;4823355;29;20058;-69
2022/10/02 12:51:16;;;;;;;8.18;4.13;;;;;;;;;;4823245;29;20051;-70
2022/10/02 12:54:06;;;;;;;4.95;1.92;;;;;;;;;;4808516;29;20413;-71
2022/10/02 12:56:51;;;;;;;5.72;2.50;;;;;;;;;;4823281;29;20062;-69
2022/10/02 12:59:36;;;;;;;4.38;2.22;;;;;;;;;;4822814;29;20054;-69
2022/10/02 13:02:49;;;;;;;5.18;2.30;;;;;;;;;;4879241;29;20063;-70
2022/10/02 13:05:55;;;;;;;4.10;1.73;;;;;;;;;;4954176;29;20043;-69
2022/10/02 13:08:50;;;;;;;3.42;1.80;;;;;;;;;;4922293;29;20167;-69
2022/10/02 13:11:58;;;;;;;2.75;1.73;;;;;;;;;;4954024;29;20062;-70
2022/10/02 13:14:52;;;;;;;2.90;1.55;;;;;;;;;;4896854;29;20057;-69
2022/10/02 13:17:36;;;;;;;3.65;1.58;;;;;;;;;;4897006;29;20796;-69
2022/10/02 13:20:37;;;;;;;4.28;1.80;;;;;;;;;;4880895;29;20049;-69
2022/10/02 13:23:20;;;;;;;3.42;1.83;;;;;;;;;;4972033;28;20051;-67
2022/10/02 13:26:11;;;;;;;4.38;1.70;;;;;;;;;;4973112;28;20051;-69
2022/10/02 13:28:41;;;;;;;5.15;3.00;;;;;;;;;;4956773;28;20054;-68
2022/10/02 13:31:26;;;;;;;3.47;1.77;;;;;;;;;;4972648;28;20531;-67
2022/10/02 13:34:29;;;;;;;4.03;2.50;;;;;;;;;;4956819;28;20059;-67
2022/10/02 13:37:21;;;;;;;4.80;3.00;;;;;;;;;;4924754;28;20526;-67
2022/10/02 13:39:55;;;;;;;4.88;1.90;;;;;;;;;;4972583;28;20063;-68
2022/10/02 13:42:35;;;;;;;5.53;2.53;;;;;;;;;;4972844;28;20508;-68
2022/10/02 13:45:37;;;;;;;5.15;1.98;;;;;;;;;;4956549;28;20058;-68
2022/10/02 13:48:22;;;;;;;4.03;1.88;;;;;;;;;;4972571;28;20057;-68
2022/10/02 13:51:05;;;;;;;2.75;1.50;;;;;;;;;;4957365;28;20060;-67
2022/10/02 13:53:50;;;;;;;4.97;2.03;;;;;;;;;;5073527;28;20048;-67
2022/10/02 13:56:28;;;;;;;2.75;1.52;;;;;;;;;;5073289;28;20400;-67
2022/10/02 13:59:17;;;;;;;3.03;1.55;;;;;;;;;;5073464;28;20052;-68
2022/10/02 14:02:24;;;;;;;2.92;1.35;;;;;;;;;;5073286;28;20059;-67
2022/10/02 14:05:19;;;;;;;4.78;1.55;;;;;;;;;;5038540;28;20067;-67
2022/10/02 14:08:20;;;;;;;3.25;1.50;;;;;;;;;;5073149;28;20041;-68
2022/10/02 14:11:07;;;;;;;3.45;1.92;;;;;;;;;;5054762;28;20048;-68
2022/10/02 14:13:52;;;;;;;1.83;1.23;;;;;;;;;;5037698;28;20496;-68
2022/10/02 14:16:34;;;;;;;1.83;1.00;;;;;;;;;;5073145;28;20507;-68
2022/10/02 14:19:27;;;;;;;2.38;1.30;;;;;;;;;;5072738;28;20067;-68
2022/10/02 14:22:06;;;;;;;2.17;1.20;;;;;;;;;;5072964;28;20040;-71
2022/10/02 14:25:03;;;;;;;2.78;1.33;;;;;;;;;;5013847;28;20053;-68
2022/10/02 14:27:53;;;;;;;1.92;1.30;;;;;;;;;;5016513;28;20053;-68
2022/10/02 14:30:35;;;;;;;2.65;1.23;;;;;;;;;;5030578;28;20065;-68
2022/10/02 14:33:37;;;;;;;2.47;1.15;;;;;;;;;;4997627;28;20053;-67
2022/10/02 14:36:41;;;;;;;2.13;0.80;;;;;;;;;;5030572;28;20081;-69
2022/10/02 14:39:27;;;;;;;2.20;1.23;;;;;;;;;;4952262;29;20059;-70
2022/10/02 14:42:23;;;;;;;2.15;0.90;;;;;;;;;;4905029;29;20060;-69
2022/10/02 14:45:08;;;;;;;2.00;1.00;;;;;;;;;;4936124;29;20062;-68
2022/10/02 14:48:03;;;;;;;4.45;1.30;;;;;;;;;;4952431;29;20539;-68
2022/10/02 14:50:54;;;;;;;1.20;0.60;;;;;;;;;;4920401;29;20066;-67
2022/10/02 14:53:48;;;;;;;2.00;0.65;;;;;;;;;;4952335;29;20047;-69
2022/10/02 14:56:31;;;;;;;0.98;0.50;;;;;;;;;;4980166;28;20545;-67
2022/10/02 14:59:10;;;;;;;1.30;0.77;;;;;;;;;;4990493;28;20062;-67
2022/10/02 15:02:11;;;;;;;1.52;1.00;;;;;;;;;;4974992;28;20502;-67
2022/10/02 15:04:59;;;;;;;1.23;0.75;;;;;;;;;;4882642;29;20425;-69
2022/10/02 15:07:37;;;;;;;1.88;0.70;;;;;;;;;;4913843;29;20422;-69
2022/10/02 15:10:27;;;;;;;1.10;0.90;;;;;;;;;;4913917;29;20060;-68
2022/10/02 15:13:04;;;;;;;1.70;0.73;;;;;;;;;;4913991;29;20048;-69
2022/10/02 15:19:04;;;;;;;2.33;1.35;;;;;;;;;;4923133;28;20059;-67
2022/10/02 15:21:50;;;;;;;1.55;0.80;;;;;;;;;;4971179;28;20063;-67
2022/10/02 15:24:43;;;;;;;1.42;0.85;;;;;;;;;;4932207;29;20043;-67
2022/10/02 15:27:23;;;;;;;1.63;0.63;;;;;;;;;;4932629;29;20059;-68
2022/10/02 15:30:04;;;;;;;2.70;0.80;;;;;;;;;;4916830;29;20059;-68
2022/10/02 15:32:44;;;;;;;2.42;1.10;;;;;;;;;;4932646;29;20059;-67
2022/10/02 15:35:39;;;;;;;2.88;1.13;;;;;;;;;;4916767;29;20508;-68
2022/10/02 15:38:18;;;;;;;2.30;1.10;;;;;;;;;;4932675;29;20103;-68
2022/10/02 15:41:34;;;;;;;2.05;1.00;;;;;;;;;;4937995;28;20114;-68
2022/10/02 15:44:16;;;;;;;1.33;0.75;;;;;;;;;;4951680;29;20086;-68
2022/10/02 15:46:55;;;;;;;2.30;1.02;;;;;;;;;;4951652;29;20055;-69
2022/10/02 15:49:55;;;;;;;2.10;0.90;;;;;;;;;;4951533;29;20059;-68
2022/10/02 15:52:43;;;;;;;1.70;1.00;;;;;;;;;;4893945;29;20511;-66
2022/10/02 15:55:37;;;;;;;1.88;1.30;;;;;;;;;;4896650;29;20610;-68
2022/10/02 15:58:44;;;;;;;2.80;1.00;;;;;;;;;;4898169;29;20065;-69
2022/10/02 16:01:36;;;;;;;1.08;0.70;;;;;;;;;;4904798;29;20055;-70
2022/10/02 16:04:28;;;;;;;1.33;0.93;;;;;;;;;;4935942;29;20067;-68
2022/10/02 16:07:29;;;;;;;1.55;0.80;;;;;;;;;;4936084;29;20060;-70
2022/10/02 16:10:24;;;;;;;2.38;0.70;;;;;;;;;;4936031;29;20062;-68
2022/10/02 16:12:57;;;;;;;1.48;0.90;;;;;;;;;;4919664;29;20056;-70
2022/10/02 16:15:52;;;;;;;0.90;0.63;;;;;;;;;;4919965;29;20067;-69
2022/10/02 16:18:52;;;;;;;2.17;1.30;;;;;;;;;;4883641;29;20408;-69
2022/10/02 16:21:59;;;;;;;1.42;0.70;;;;;;;;;;4906976;29;20504;-67
2022/10/02 16:24:47;;;;;;;1.60;0.80;;;;;;;;;;4935918;29;20059;-68
2022/10/02 16:27:31;;;;;;;1.13;0.80;;;;;;;;;;4919755;29;20494;-68
2022/10/02 16:30:12;;;;;;;1.20;0.80;;;;;;;;;;4990166;28;20062;-68
2022/10/02 16:33:08;;;;;;;0.82;0.65;;;;;;;;;;4993376;28;20067;-68
2022/10/02 16:36:16;;;;;;;1.30;1.00;;;;;;;;;;4977173;28;20051;-68
2022/10/02 16:39:19;;;;;;;2.05;0.73;;;;;;;;;;4985129;28;20054;-69
2022/10/02 16:42:11;;;;;;;1.38;0.70;;;;;;;;;;4993289;28;20115;-68
2022/10/02 16:45:16;;;;;;;1.88;1.13;;;;;;;;;;4973730;28;20066;-67
2022/10/02 16:48:14;;;;;;;2.20;0.85;;;;;;;;;;4935503;29;20060;-67
2022/10/02 16:51:04;;;;;;;1.50;1.00;;;;;;;;;;4847707;29;20068;-67
2022/10/02 16:53:51;;;;;;;1.23;0.77;;;;;;;;;;4878544;29;20053;-68
2022/10/02 16:56:30;;;;;;;1.00;0.60;;;;;;;;;;4886969;29;20071;-67
2022/10/02 16:59:16;;;;;;;1.05;0.80;;;;;;;;;;4916085;29;20413;-68